Time;durP1;ratioP1;P1;durP2;ratioP2;P2;SDS_P1;SDS_P2;PMS_P1;PMS_P2;Temp;Humidity;BMP_temperature;BMP_pressure;BME280_temperature;BME280_humidity;BME280_pressure;Samples;Min_cycle;Max_cycle;Signal;HPM_P1;HPM_P2
2021/04/05 00:03:16;;;;;;;8.67;3.30;;;;;;;;;;10620888;27;20256;-68
2021/04/05 00:08:18;;;;;;;7.63;3.30;;;;;;;;;;10628832;27;20225;-70
2021/04/05 00:13:22;;;;;;;5.80;2.10;;;;;;;;;;10640135;27;20198;-69
2021/04/05 00:18:24;;;;;;;7.00;2.53;;;;;;;;;;10623295;27;20190;-70
2021/04/05 00:23:26;;;;;;;6.70;2.40;;;;;;;;;;10621682;27;20269;-71
2021/04/05 00:28:28;;;;;;;4.87;2.00;;;;;;;;;;10618354;27;20316;-70
2021/04/05 00:33:30;;;;;;;4.80;1.80;;;;;;;;;;10642926;27;20697;-71
2021/04/05 00:38:31;;;;;;;3.23;1.60;;;;;;;;;;10618549;27;20253;-72
2021/04/05 00:43:35;;;;;;;4.37;1.83;;;;;;;;;;10615763;27;20276;-72
2021/04/05 00:48:36;;;;;;;4.93;2.30;;;;;;;;;;10632387;27;20262;-71
2021/04/05 00:53:40;;;;;;;7.47;2.87;;;;;;;;;;10605865;27;20218;-71
2021/04/05 00:58:43;;;;;;;4.67;2.13;;;;;;;;;;10630726;27;20227;-70
2021/04/05 01:03:44;;;;;;;7.20;2.40;;;;;;;;;;10628968;27;20297;-72
2021/04/05 01:08:47;;;;;;;5.43;2.20;;;;;;;;;;10642751;27;20696;-71
2021/04/05 01:13:49;;;;;;;4.33;1.80;;;;;;;;;;10628116;27;20218;-71
2021/04/05 01:18:51;;;;;;;4.23;2.30;;;;;;;;;;10640700;27;20189;-71
2021/04/05 01:23:53;;;;;;;2.30;1.23;;;;;;;;;;10635642;27;20205;-72
2021/04/05 01:28:55;;;;;;;3.50;1.57;;;;;;;;;;10639995;27;20238;-71
2021/04/05 01:33:57;;;;;;;6.67;2.30;;;;;;;;;;10634917;27;20214;-70
2021/04/05 01:38:59;;;;;;;4.13;1.73;;;;;;;;;;10640103;27;20223;-71
2021/04/05 01:44:03;;;;;;;1.00;0.90;;;;;;;;;;10626357;27;20210;-70
2021/04/05 01:49:05;;;;;;;6.50;2.27;;;;;;;;;;10630430;27;20297;-70
2021/04/05 01:54:08;;;;;;;5.90;2.70;;;;;;;;;;10621208;27;20561;-71
2021/04/05 01:59:09;;;;;;;5.67;2.57;;;;;;;;;;10645072;27;20218;-71
2021/04/05 02:04:12;;;;;;;3.83;1.60;;;;;;;;;;10632495;27;20704;-71
2021/04/05 02:09:14;;;;;;;6.23;2.83;;;;;;;;;;10636148;27;20659;-70
2021/04/05 02:14:16;;;;;;;6.33;2.30;;;;;;;;;;10636508;27;20535;-68
2021/04/05 02:19:17;;;;;;;8.90;2.83;;;;;;;;;;10617141;27;20607;-70
2021/04/05 02:24:19;;;;;;;7.90;2.90;;;;;;;;;;10637278;27;20244;-70
2021/04/05 02:29:21;;;;;;;5.53;2.60;;;;;;;;;;10627918;27;20214;-71
2021/04/05 02:34:24;;;;;;;8.20;2.80;;;;;;;;;;10625177;27;20209;-70
2021/04/05 02:39:26;;;;;;;5.67;2.43;;;;;;;;;;10645271;27;20918;-70
2021/04/05 02:44:28;;;;;;;7.20;2.80;;;;;;;;;;10639746;27;20312;-71
2021/04/05 02:49:30;;;;;;;5.57;2.27;;;;;;;;;;10636981;27;20222;-71
2021/04/05 02:54:33;;;;;;;5.67;2.50;;;;;;;;;;10640432;27;20197;-70
2021/04/05 02:59:34;;;;;;;3.30;1.93;;;;;;;;;;10634787;27;20201;-70
2021/04/05 03:04:36;;;;;;;5.93;2.53;;;;;;;;;;10639118;27;20227;-71
2021/04/05 03:09:40;;;;;;;2.53;1.20;;;;;;;;;;10641532;27;20367;-71
2021/04/05 03:14:41;;;;;;;7.90;2.63;;;;;;;;;;10632282;27;20218;-71
2021/04/05 03:19:43;;;;;;;3.37;1.47;;;;;;;;;;10627824;27;20243;-71
2021/04/05 03:24:45;;;;;;;4.00;1.47;;;;;;;;;;10601536;27;22585;-71
2021/04/05 03:29:47;;;;;;;6.43;2.53;;;;;;;;;;10594810;27;20210;-70
2021/04/05 03:34:52;;;;;;;5.00;2.10;;;;;;;;;;10623477;27;20222;-72
2021/04/05 03:39:55;;;;;;;3.23;1.53;;;;;;;;;;10638775;27;20260;-72
2021/04/05 03:44:58;;;;;;;3.00;1.40;;;;;;;;;;10634355;27;20623;-71
2021/04/05 03:50:04;;;;;;;2.80;1.43;;;;;;;;;;10633837;27;20221;-72
2021/04/05 03:55:08;;;;;;;7.03;2.00;;;;;;;;;;10620041;27;20230;-71
2021/04/05 04:00:10;;;;;;;5.37;2.30;;;;;;;;;;10618087;27;20706;-71
2021/04/05 04:05:16;;;;;;;4.93;1.93;;;;;;;;;;10635266;27;20610;-71
2021/04/05 04:10:19;;;;;;;6.03;2.33;;;;;;;;;;10650663;27;20304;-72
2021/04/05 04:15:21;;;;;;;3.53;1.40;;;;;;;;;;10615159;27;20296;-72
2021/04/05 04:20:24;;;;;;;7.13;2.27;;;;;;;;;;10630418;27;20216;-71
2021/04/05 04:25:27;;;;;;;5.13;1.67;;;;;;;;;;10591971;27;20605;-70
2021/04/05 04:30:32;;;;;;;2.83;1.40;;;;;;;;;;10593287;27;20224;-70
2021/04/05 04:35:34;;;;;;;5.00;1.60;;;;;;;;;;10603792;27;20217;-70
2021/04/05 04:40:36;;;;;;;4.33;1.90;;;;;;;;;;10639974;27;20190;-70
2021/04/05 04:45:38;;;;;;;1.60;1.10;;;;;;;;;;10642763;27;20652;-70
2021/04/05 04:50:40;;;;;;;7.67;2.30;;;;;;;;;;10640404;27;20288;-72
2021/04/05 04:55:43;;;;;;;6.47;1.67;;;;;;;;;;10631977;27;20214;-72
2021/04/05 05:00:44;;;;;;;2.33;1.23;;;;;;;;;;10649131;27;20563;-71
2021/04/05 05:05:47;;;;;;;3.73;1.67;;;;;;;;;;10634107;27;20234;-72
2021/04/05 05:10:49;;;;;;;3.20;1.37;;;;;;;;;;10640495;27;20296;-71
2021/04/05 05:15:52;;;;;;;5.10;2.00;;;;;;;;;;10634838;27;20656;-71
2021/04/05 05:20:53;;;;;;;5.13;1.80;;;;;;;;;;10645610;27;20261;-72
2021/04/05 05:25:56;;;;;;;5.83;2.33;;;;;;;;;;10636643;27;20237;-72
2021/04/05 05:30:58;;;;;;;6.10;2.23;;;;;;;;;;10640025;27;20293;-71
2021/04/05 05:36:00;;;;;;;4.13;2.13;;;;;;;;;;10628891;27;20213;-72
2021/04/05 05:41:10;;;;;;;9.77;2.83;;;;;;;;;;10643231;27;20207;-70
2021/04/05 05:46:19;;;;;;;6.70;2.20;;;;;;;;;;10616800;27;20350;-70
2021/04/05 05:51:28;;;;;;;6.10;2.30;;;;;;;;;;10636483;27;20717;-71
2021/04/05 05:56:35;;;;;;;2.97;1.60;;;;;;;;;;10636861;27;20412;-70
2021/04/05 06:01:41;;;;;;;5.23;2.40;;;;;;;;;;10630552;27;20269;-70
2021/04/05 06:06:49;;;;;;;3.93;1.97;;;;;;;;;;10647700;27;20202;-71
2021/04/05 06:11:55;;;;;;;6.57;2.70;;;;;;;;;;10649513;27;20285;-72
2021/04/05 06:17:03;;;;;;;5.00;2.40;;;;;;;;;;10639635;27;20210;-71
2021/04/05 06:22:08;;;;;;;4.43;2.10;;;;;;;;;;10648253;27;20178;-72
2021/04/05 06:27:14;;;;;;;4.13;2.20;;;;;;;;;;10650933;27;20523;-72
2021/04/05 06:32:20;;;;;;;7.03;2.30;;;;;;;;;;10635623;27;20223;-70
2021/04/05 06:37:24;;;;;;;5.27;2.13;;;;;;;;;;10604783;27;20233;-71
2021/04/05 06:42:38;;;;;;;4.20;2.00;;;;;;;;;;10646457;27;20202;-70
2021/04/05 06:47:52;;;;;;;3.03;1.60;;;;;;;;;;10645772;27;20760;-71
2021/04/05 06:52:58;;;;;;;4.70;1.80;;;;;;;;;;10655810;27;20246;-71
2021/04/05 06:58:12;;;;;;;3.87;2.07;;;;;;;;;;10632698;27;20259;-71
2021/04/05 07:03:23;;;;;;;5.80;2.47;;;;;;;;;;10640591;27;20235;-71
2021/04/05 07:08:29;;;;;;;5.90;2.60;;;;;;;;;;10639655;27;20224;-71
2021/04/05 07:13:33;;;;;;;3.73;2.00;;;;;;;;;;10645517;27;20198;-71
2021/04/05 07:18:39;;;;;;;7.60;2.60;;;;;;;;;;10616505;27;20194;-72
2021/04/05 07:23:49;;;;;;;5.43;2.13;;;;;;;;;;10641393;27;20708;-71
2021/04/05 07:28:55;;;;;;;6.50;2.80;;;;;;;;;;10622668;27;20210;-72
2021/04/05 07:33:58;;;;;;;6.63;3.20;;;;;;;;;;10649608;27;20300;-73
2021/04/05 07:39:05;;;;;;;4.90;2.43;;;;;;;;;;10645876;27;20732;-73
2021/04/05 07:44:16;;;;;;;5.60;2.60;;;;;;;;;;10649808;27;20241;-72
2021/04/05 07:49:20;;;;;;;5.37;2.57;;;;;;;;;;10656252;27;20582;-71
2021/04/05 07:54:22;;;;;;;5.70;2.03;;;;;;;;;;10622678;27;20223;-72
2021/04/05 07:59:35;;;;;;;6.10;2.97;;;;;;;;;;10638930;27;20188;-71
2021/04/05 08:04:42;;;;;;;5.63;2.70;;;;;;;;;;10636897;27;20202;-71
2021/04/05 08:09:47;;;;;;;6.40;2.70;;;;;;;;;;10635803;27;20209;-72
2021/04/05 08:14:55;;;;;;;5.20;2.80;;;;;;;;;;10623186;27;20218;-70
2021/04/05 08:19:58;;;;;;;4.47;2.30;;;;;;;;;;10645737;27;20185;-70
2021/04/05 08:25:04;;;;;;;15.68;3.88;;;;;;;;;;10642220;27;20650;-71
2021/04/05 08:30:10;;;;;;;6.45;2.75;;;;;;;;;;10624454;27;20202;-71
2021/04/05 08:35:28;;;;;;;5.55;2.67;;;;;;;;;;10635467;27;20224;-72
2021/04/05 08:40:52;;;;;;;6.00;2.92;;;;;;;;;;10635076;27;20235;-72
2021/04/05 08:46:11;;;;;;;5.05;2.55;;;;;;;;;;10612482;27;20282;-71
2021/04/05 08:51:17;;;;;;;6.97;2.67;;;;;;;;;;10619033;27;20178;-71
2021/04/05 08:56:19;;;;;;;5.30;2.60;;;;;;;;;;10637345;27;20233;-71
2021/04/05 09:01:26;;;;;;;4.25;2.55;;;;;;;;;;10615786;27;20205;-70
2021/04/05 09:06:32;;;;;;;4.82;2.20;;;;;;;;;;10630005;27;20210;-72
2021/04/05 09:11:36;;;;;;;4.32;2.55;;;;;;;;;;10637265;27;20206;-71
2021/04/05 09:16:51;;;;;;;5.78;2.58;;;;;;;;;;10610538;27;20781;-71
2021/04/05 09:22:08;;;;;;;7.80;2.70;;;;;;;;;;10633099;27;20221;-70
2021/04/05 09:27:25;;;;;;;7.57;2.15;;;;;;;;;;10631034;27;20241;-70
2021/04/05 09:32:44;;;;;;;4.68;1.80;;;;;;;;;;10629364;27;20703;-70
2021/04/05 09:37:54;;;;;;;3.67;1.70;;;;;;;;;;10627208;27;20297;-71
2021/04/05 09:43:03;;;;;;;4.47;2.40;;;;;;;;;;10643745;27;20221;-69
2021/04/05 09:48:27;;;;;;;3.95;2.00;;;;;;;;;;10614328;27;20754;-70
2021/04/05 09:53:40;;;;;;;4.90;2.03;;;;;;;;;;10636771;27;20208;-71
2021/04/05 09:58:43;;;;;;;8.73;2.05;;;;;;;;;;10622864;27;20376;-70
2021/04/05 10:03:46;;;;;;;6.25;2.40;;;;;;;;;;10640923;27;20445;-71
2021/04/05 10:08:49;;;;;;;7.40;2.07;;;;;;;;;;10639540;27;20198;-72
2021/04/05 10:13:54;;;;;;;4.90;1.90;;;;;;;;;;10662825;27;20259;-71
2021/04/05 10:18:56;;;;;;;5.53;1.90;;;;;;;;;;10651710;27;20226;-71
2021/04/05 10:23:59;;;;;;;5.00;1.80;;;;;;;;;;10642924;27;20244;-71
2021/04/05 10:29:03;;;;;;;5.73;1.90;;;;;;;;;;10619398;27;20290;-70
2021/04/05 10:34:06;;;;;;;6.80;2.20;;;;;;;;;;10631156;27;20276;-70
2021/04/05 10:39:08;;;;;;;4.00;1.90;;;;;;;;;;10639708;27;20225;-71
2021/04/05 10:44:12;;;;;;;3.83;1.60;;;;;;;;;;10616925;27;20210;-71
2021/04/05 10:49:17;;;;;;;3.13;1.27;;;;;;;;;;10637891;27;20725;-69
2021/04/05 10:54:24;;;;;;;5.13;1.80;;;;;;;;;;10617526;27;20346;-71
2021/04/05 10:59:29;;;;;;;3.43;1.50;;;;;;;;;;10645259;27;20209;-70
2021/04/05 11:04:33;;;;;;;4.40;1.77;;;;;;;;;;10620016;27;20830;-70
2021/04/05 11:09:37;;;;;;;3.63;1.77;;;;;;;;;;10641685;27;20709;-70
2021/04/05 11:14:41;;;;;;;5.40;1.73;;;;;;;;;;10629075;27;20209;-69
2021/04/05 11:19:50;;;;;;;4.17;2.00;;;;;;;;;;10637188;27;20193;-71
2021/04/05 11:24:53;;;;;;;5.43;2.30;;;;;;;;;;10631487;27;20208;-71
2021/04/05 11:29:57;;;;;;;4.38;2.10;;;;;;;;;;10628489;27;20216;-72
2021/04/05 11:35:03;;;;;;;5.30;2.20;;;;;;;;;;10638751;27;20865;-70
2021/04/05 11:40:09;;;;;;;4.82;2.40;;;;;;;;;;10648222;27;20617;-71
2021/04/05 11:45:13;;;;;;;5.47;2.85;;;;;;;;;;10633398;27;20268;-69
2021/04/05 11:50:16;;;;;;;4.82;2.35;;;;;;;;;;10626376;27;20257;-72
2021/04/05 11:55:22;;;;;;;4.85;2.42;;;;;;;;;;10636297;27;20280;-72
2021/04/05 12:00:26;;;;;;;3.90;1.80;;;;;;;;;;10619729;27;20665;-73
2021/04/05 12:05:30;;;;;;;4.50;2.20;;;;;;;;;;10636262;27;20210;-72
2021/04/05 12:10:33;;;;;;;3.37;1.77;;;;;;;;;;10633526;27;20208;-73
2021/04/05 12:15:35;;;;;;;4.78;2.00;;;;;;;;;;10630371;27;20693;-72
2021/04/05 12:20:39;;;;;;;5.93;2.40;;;;;;;;;;10643039;27;20205;-72
2021/04/05 12:25:41;;;;;;;4.78;2.30;;;;;;;;;;10637225;27;20205;-72
2021/04/05 12:30:44;;;;;;;5.32;2.15;;;;;;;;;;10642736;27;20699;-71
2021/04/05 12:35:51;;;;;;;2.22;1.50;;;;;;;;;;10632747;27;20209;-72
2021/04/05 12:40:53;;;;;;;4.30;2.05;;;;;;;;;;10617422;27;20297;-71
2021/04/05 12:45:56;;;;;;;2.47;1.33;;;;;;;;;;10612529;27;20595;-72
2021/04/05 12:51:01;;;;;;;1.75;1.38;;;;;;;;;;10628988;27;20987;-72
2021/04/05 12:56:05;;;;;;;6.23;2.00;;;;;;;;;;10631787;27;20811;-72
2021/04/05 13:01:07;;;;;;;2.90;1.57;;;;;;;;;;10632633;27;20195;-69
2021/04/05 13:06:10;;;;;;;3.23;1.70;;;;;;;;;;10630869;27;20214;-70
2021/04/05 13:11:17;;;;;;;3.03;1.37;;;;;;;;;;10636325;27;20271;-72
2021/04/05 13:16:22;;;;;;;3.80;1.40;;;;;;;;;;10637958;27;20290;-71
2021/04/05 13:21:34;;;;;;;3.37;1.50;;;;;;;;;;10638633;27;20229;-72
2021/04/05 13:26:39;;;;;;;2.93;1.03;;;;;;;;;;10637357;27;20259;-71
2021/04/05 13:31:41;;;;;;;3.33;1.07;;;;;;;;;;10644757;27;20190;-69
2021/04/05 13:36:49;;;;;;;4.57;1.50;;;;;;;;;;10637875;27;20277;-69
2021/04/05 13:41:52;;;;;;;1.57;1.13;;;;;;;;;;10630918;27;20211;-70
2021/04/05 13:46:54;;;;;;;3.77;1.70;;;;;;;;;;10613054;27;20206;-69
2021/04/05 13:51:58;;;;;;;4.53;1.80;;;;;;;;;;10637685;27;20242;-69
2021/04/05 13:57:04;;;;;;;4.40;1.80;;;;;;;;;;10623401;27;20221;-69
2021/04/05 14:02:07;;;;;;;2.93;1.27;;;;;;;;;;10638386;27;20561;-71
2021/04/05 14:07:11;;;;;;;3.80;1.73;;;;;;;;;;10638870;27;20693;-69
2021/04/05 14:12:15;;;;;;;5.27;1.83;;;;;;;;;;10658368;27;20215;-67
2021/04/05 14:17:26;;;;;;;5.03;1.90;;;;;;;;;;10642267;27;20229;-69
2021/04/05 14:22:32;;;;;;;6.00;2.00;;;;;;;;;;10655456;27;20675;-69
2021/04/05 14:27:36;;;;;;;5.93;2.20;;;;;;;;;;10645135;27;20214;-68
2021/04/05 14:32:41;;;;;;;3.70;1.33;;;;;;;;;;10629831;27;20254;-69
2021/04/05 14:37:44;;;;;;;5.00;1.90;;;;;;;;;;10642279;27;20209;-69
2021/04/05 14:42:54;;;;;;;6.37;2.07;;;;;;;;;;10656503;27;20206;-70
2021/04/05 14:47:57;;;;;;;7.93;1.97;;;;;;;;;;10660111;27;20210;-70
2021/04/05 14:53:00;;;;;;;5.80;1.60;;;;;;;;;;10656047;27;20330;-71
2021/04/05 14:58:05;;;;;;;5.60;1.80;;;;;;;;;;10656966;27;20691;-71
2021/04/05 15:03:08;;;;;;;5.83;1.93;;;;;;;;;;10657127;27;20318;-69
2021/04/05 15:08:11;;;;;;;3.90;1.43;;;;;;;;;;10636954;27;20226;-70
2021/04/05 15:13:14;;;;;;;5.37;1.90;;;;;;;;;;10635630;27;20702;-69
2021/04/05 15:18:15;;;;;;;4.80;1.40;;;;;;;;;;10641502;27;20307;-68
2021/04/05 15:23:25;;;;;;;2.80;1.13;;;;;;;;;;10630576;27;20234;-70
2021/04/05 15:28:30;;;;;;;4.93;1.80;;;;;;;;;;10621105;27;20193;-70
2021/04/05 15:33:34;;;;;;;4.80;1.53;;;;;;;;;;10626335;27;20198;-69
2021/04/05 15:38:37;;;;;;;5.97;1.73;;;;;;;;;;10642609;27;20199;-68
2021/04/05 15:43:41;;;;;;;4.23;1.60;;;;;;;;;;10625541;27;20214;-69
2021/04/05 15:48:46;;;;;;;5.27;1.97;;;;;;;;;;10642993;27;20254;-69
2021/04/05 15:53:53;;;;;;;6.77;2.07;;;;;;;;;;10629106;27;20626;-71
2021/04/05 15:58:56;;;;;;;5.50;1.80;;;;;;;;;;10640118;27;20188;-69
2021/04/05 16:04:03;;;;;;;5.47;2.13;;;;;;;;;;10643132;27;20657;-68
2021/04/05 16:09:07;;;;;;;6.37;2.60;;;;;;;;;;10631883;27;20209;-69
2021/04/05 16:14:11;;;;;;;7.77;2.57;;;;;;;;;;10643522;27;20210;-70
2021/04/05 16:19:14;;;;;;;5.70;2.20;;;;;;;;;;10624999;27;20539;-69
2021/04/05 16:24:23;;;;;;;6.00;2.50;;;;;;;;;;10610801;27;20904;-68
2021/04/05 16:29:28;;;;;;;6.67;2.57;;;;;;;;;;10606112;27;20614;-68
2021/04/05 16:34:31;;;;;;;7.20;2.47;;;;;;;;;;10646253;27;20333;-70
2021/04/05 16:39:35;;;;;;;10.27;3.10;;;;;;;;;;10636601;27;20237;-69
2021/04/05 16:44:38;;;;;;;7.90;2.83;;;;;;;;;;10652017;27;20662;-69
2021/04/05 16:49:41;;;;;;;8.03;2.70;;;;;;;;;;10642229;27;20671;-68
2021/04/05 16:54:46;;;;;;;6.57;2.40;;;;;;;;;;10612999;27;20212;-68
2021/04/05 16:59:50;;;;;;;7.27;2.30;;;;;;;;;;10637647;27;20236;-68
2021/04/05 17:04:54;;;;;;;6.57;2.67;;;;;;;;;;10614788;27;20241;-69
2021/04/05 17:09:57;;;;;;;5.87;2.43;;;;;;;;;;10612664;27;20205;-70
2021/04/05 17:14:59;;;;;;;10.77;3.57;;;;;;;;;;10625145;27;20210;-68
2021/04/05 17:20:06;;;;;;;11.17;5.30;;;;;;;;;;10630195;27;20534;-68
2021/04/05 17:25:10;;;;;;;11.13;5.77;;;;;;;;;;10628795;27;20660;-68
2021/04/05 17:30:14;;;;;;;10.63;5.03;;;;;;;;;;10641105;27;20190;-69
2021/04/05 17:35:17;;;;;;;14.57;6.70;;;;;;;;;;10644081;27;20202;-70
2021/04/05 17:40:25;;;;;;;12.33;6.67;;;;;;;;;;10627580;27;20305;-70
2021/04/05 17:45:29;;;;;;;11.03;6.30;;;;;;;;;;10614151;27;20681;-70
2021/04/05 17:50:36;;;;;;;11.53;5.70;;;;;;;;;;10627562;27;20285;-70
2021/04/05 17:55:47;;;;;;;7.03;3.33;;;;;;;;;;10631809;27;20252;-70
2021/04/05 18:00:54;;;;;;;2.53;1.60;;;;;;;;;;10630043;27;20259;-70
2021/04/05 18:05:57;;;;;;;1.97;1.10;;;;;;;;;;10631409;27;20206;-70
2021/04/05 18:11:14;;;;;;;1.10;0.90;;;;;;;;;;10647500;27;20816;-69
2021/04/05 18:16:20;;;;;;;3.60;1.43;;;;;;;;;;10630408;27;20308;-70
2021/04/05 18:21:43;;;;;;;2.50;1.30;;;;;;;;;;10614385;27;20241;-68
2021/04/05 18:26:54;;;;;;;2.77;1.20;;;;;;;;;;10635889;27;21035;-68
2021/04/05 18:31:58;;;;;;;3.07;1.70;;;;;;;;;;10629857;27;20483;-68
2021/04/05 18:37:03;;;;;;;2.50;1.30;;;;;;;;;;10619723;27;20276;-70
2021/04/05 18:42:07;;;;;;;2.73;1.27;;;;;;;;;;10618713;27;20233;-68
2021/04/05 18:47:10;;;;;;;2.90;1.40;;;;;;;;;;10618330;27;20216;-67
2021/04/05 18:52:14;;;;;;;3.50;1.43;;;;;;;;;;10615918;27;20766;-68
2021/04/05 18:57:21;;;;;;;3.53;1.50;;;;;;;;;;10627301;27;20222;-68
2021/04/05 19:02:26;;;;;;;4.03;1.60;;;;;;;;;;10640659;27;20198;-68
2021/04/05 19:07:32;;;;;;;2.70;1.70;;;;;;;;;;10649020;27;20262;-67
2021/04/05 19:12:51;;;;;;;3.50;1.70;;;;;;;;;;10658138;27;20203;-69
2021/04/05 19:18:07;;;;;;;2.60;1.67;;;;;;;;;;10650913;27;20740;-69
2021/04/05 19:23:17;;;;;;;4.37;2.00;;;;;;;;;;10638054;27;20247;-67
2021/04/05 19:28:33;;;;;;;2.80;1.47;;;;;;;;;;10645272;27;20237;-68
2021/04/05 19:34:08;;;;;;;3.00;1.50;;;;;;;;;;10646868;27;20654;-68
2021/04/05 19:39:15;;;;;;;2.43;1.50;;;;;;;;;;10424402;28;20692;-67
2021/04/05 19:44:29;;;;;;;3.57;1.90;;;;;;;;;;10596171;27;20241;-69
2021/04/05 19:49:47;;;;;;;3.37;1.70;;;;;;;;;;10649877;27;20699;-68
2021/04/05 19:55:04;;;;;;;2.70;1.43;;;;;;;;;;10652295;27;20290;-67
2021/04/05 20:00:13;;;;;;;3.17;1.90;;;;;;;;;;10650028;27;20250;-68
2021/04/05 20:05:17;;;;;;;3.03;1.63;;;;;;;;;;10657206;27;20268;-68
2021/04/05 20:10:36;;;;;;;3.37;1.83;;;;;;;;;;10644994;27;20274;-68
2021/04/05 20:15:46;;;;;;;2.13;1.43;;;;;;;;;;10622681;27;20210;-68
2021/04/05 20:20:50;;;;;;;4.10;2.00;;;;;;;;;;10638868;27;20206;-67
2021/04/05 20:25:54;;;;;;;3.63;1.73;;;;;;;;;;10644371;27;20221;-69
2021/04/05 20:31:03;;;;;;;3.03;1.53;;;;;;;;;;10644584;27;20297;-69
2021/04/05 20:36:11;;;;;;;4.30;1.40;;;;;;;;;;10630293;27;20214;-68
2021/04/05 20:41:19;;;;;;;2.10;1.17;;;;;;;;;;10637681;27;20637;-68
2021/04/05 20:46:27;;;;;;;3.03;1.20;;;;;;;;;;10627136;27;20275;-69
2021/04/05 20:51:31;;;;;;;4.30;1.27;;;;;;;;;;10635359;27;20209;-69
2021/04/05 20:56:35;;;;;;;3.57;1.37;;;;;;;;;;10632280;27;20745;-68
2021/04/05 21:01:41;;;;;;;1.93;1.20;;;;;;;;;;10641204;27;20177;-67
2021/04/05 21:06:45;;;;;;;3.03;1.20;;;;;;;;;;10618240;27;20205;-68
2021/04/05 21:11:49;;;;;;;4.83;1.33;;;;;;;;;;10618156;27;20268;-70
2021/04/05 21:16:55;;;;;;;3.10;1.30;;;;;;;;;;10615143;27;20523;-70
2021/04/05 21:21:57;;;;;;;3.47;1.23;;;;;;;;;;10635092;27;20193;-68
2021/04/05 21:27:05;;;;;;;2.40;1.40;;;;;;;;;;10638820;27;20213;-68
2021/04/05 21:32:10;;;;;;;2.13;0.77;;;;;;;;;;10638087;27;20216;-68
2021/04/05 21:37:13;;;;;;;4.33;1.50;;;;;;;;;;10612431;27;20697;-67
2021/04/05 21:42:17;;;;;;;5.27;1.60;;;;;;;;;;10631721;27;20210;-69
2021/04/05 21:47:22;;;;;;;6.30;1.73;;;;;;;;;;10635872;27;20222;-69
2021/04/05 21:52:31;;;;;;;4.17;1.27;;;;;;;;;;10637031;27;20296;-68
2021/04/05 21:57:34;;;;;;;1.73;0.83;;;;;;;;;;10634407;27;20732;-68
2021/04/05 22:02:40;;;;;;;3.33;1.70;;;;;;;;;;10641827;27;20182;-68
2021/04/05 22:07:41;;;;;;;3.00;1.50;;;;;;;;;;10636251;27;20214;-69
2021/04/05 22:12:44;;;;;;;3.43;1.50;;;;;;;;;;10629711;27;20289;-68
2021/04/05 22:17:47;;;;;;;3.23;1.30;;;;;;;;;;10641363;27;20221;-68
2021/04/05 22:22:56;;;;;;;1.60;0.87;;;;;;;;;;10637715;27;20274;-68
2021/04/05 22:27:57;;;;;;;5.27;1.70;;;;;;;;;;10638690;27;20213;-67
2021/04/05 22:33:03;;;;;;;3.97;1.63;;;;;;;;;;10645376;27;20214;-68
2021/04/05 22:38:07;;;;;;;3.67;1.20;;;;;;;;;;10634109;27;20258;-69
2021/04/05 22:43:09;;;;;;;4.40;1.43;;;;;;;;;;10635120;27;20269;-70
2021/04/05 22:48:12;;;;;;;3.90;1.23;;;;;;;;;;10621234;27;20570;-67
2021/04/05 22:53:23;;;;;;;3.87;1.20;;;;;;;;;;10636244;27;20246;-68
2021/04/05 22:58:25;;;;;;;3.83;1.10;;;;;;;;;;10647860;27;20330;-68
2021/04/05 23:03:28;;;;;;;2.13;1.10;;;;;;;;;;10643818;27;20710;-68
2021/04/05 23:08:30;;;;;;;3.30;1.10;;;;;;;;;;10640101;27;20529;-68
2021/04/05 23:13:33;;;;;;;4.13;1.20;;;;;;;;;;10632445;27;20397;-68
2021/04/05 23:18:45;;;;;;;2.83;1.20;;;;;;;;;;10646560;27;20197;-68
2021/04/05 23:23:48;;;;;;;4.13;1.43;;;;;;;;;;10645983;27;20269;-69
2021/04/05 23:28:53;;;;;;;4.47;1.70;;;;;;;;;;10646285;27;20204;-68
2021/04/05 23:34:00;;;;;;;3.90;1.33;;;;;;;;;;10641663;27;20277;-68
2021/04/05 23:39:07;;;;;;;4.13;1.37;;;;;;;;;;10613819;27;20609;-69
2021/04/05 23:44:10;;;;;;;3.43;1.23;;;;;;;;;;10646295;27;20288;-69
2021/04/05 23:49:12;;;;;;;5.30;1.47;;;;;;;;;;10643995;27;20217;-70
2021/04/05 23:54:15;;;;;;;2.43;1.17;;;;;;;;;;10638898;27;20277;-69
2021/04/05 23:59:17;;;;;;;3.73;1.60;;;;;;;;;;10639088;27;20199;-69
